Arma, Kansas
Current Conditions -  °F | °C
As of 4:35 AM on Sunday 26 Oct 2014 (Local Time) from KPTS Reporting Station
Clear Clear  
Wind Chill: 62°   Ceiling: Unl
Heat Index: 62°   Visibility: 7mi
Dew Point: 62°   Wind: 3mph
Humidity: 100%   Direction: 210°SSW
Pressure: 29.95"   Gusts: NA
Location:  37.54°N, 94.7°W
Report Text: KPTS 260935Z AUTO 21003KT 7SM CLR 17/17 A2995 RMK AO2 T01680170
Loading
Personal Weather Stations






























Interactive Weather Map
Tropical Storm Tracking
New forecast layout! Learn more

10-Day Weather Forecast

Advertisements
Track Severe Weather on mobile